sensor_id;sensor_type;location;lat;lon;timestamp;P1;durP1;ratioP1;P2;durP2;ratioP2
12888;SDS011;56848;49.896;11.424;2022-08-03T00:01:55;4.03;;;3.20;;
12888;SDS011;56848;49.896;11.424;2022-08-03T00:04:20;4.07;;;3.60;;
12888;SDS011;56848;49.896;11.424;2022-08-03T00:06:46;4.93;;;3.57;;
12888;SDS011;56848;49.896;11.424;2022-08-03T00:09:11;4.70;;;3.70;;
12888;SDS011;56848;49.896;11.424;2022-08-03T00:11:37;10.07;;;3.40;;
12888;SDS011;56848;49.896;11.424;2022-08-03T00:14:03;3.53;;;3.23;;
12888;SDS011;56848;49.896;11.424;2022-08-03T00:16:30;3.73;;;3.43;;
12888;SDS011;56848;49.896;11.424;2022-08-03T00:18:56;3.53;;;3.23;;
12888;SDS011;56848;49.896;11.424;2022-08-03T00:21:21;7.73;;;3.30;;
12888;SDS011;56848;49.896;11.424;2022-08-03T00:23:47;4.07;;;3.70;;
12888;SDS011;56848;49.896;11.424;2022-08-03T00:26:13;3.73;;;3.50;;
12888;SDS011;56848;49.896;11.424;2022-08-03T00:28:38;5.70;;;3.73;;
12888;SDS011;56848;49.896;11.424;2022-08-03T00:31:04;4.27;;;3.87;;
12888;SDS011;56848;49.896;11.424;2022-08-03T00:33:31;6.17;;;3.90;;
12888;SDS011;56848;49.896;11.424;2022-08-03T00:35:57;4.37;;;3.97;;
12888;SDS011;56848;49.896;11.424;2022-08-03T00:38:22;8.80;;;4.00;;
12888;SDS011;56848;49.896;11.424;2022-08-03T00:40:48;7.73;;;4.23;;
12888;SDS011;56848;49.896;11.424;2022-08-03T00:43:13;4.50;;;4.10;;
12888;SDS011;56848;49.896;11.424;2022-08-03T00:45:40;5.40;;;3.43;;
12888;SDS011;56848;49.896;11.424;2022-08-03T00:48:09;3.63;;;3.33;;
12888;SDS011;56848;49.896;11.424;2022-08-03T00:50:38;7.53;;;3.67;;
12888;SDS011;56848;49.896;11.424;2022-08-03T00:53:05;4.50;;;4.10;;
12888;SDS011;56848;49.896;11.424;2022-08-03T00:55:36;8.37;;;4.33;;
12888;SDS011;56848;49.896;11.424;2022-08-03T00:58:02;8.93;;;4.23;;
12888;SDS011;56848;49.896;11.424;2022-08-03T01:00:31;4.67;;;4.20;;
12888;SDS011;56848;49.896;11.424;2022-08-03T01:03:00;7.00;;;4.07;;
12888;SDS011;56848;49.896;11.424;2022-08-03T01:05:26;4.70;;;3.70;;
12888;SDS011;56848;49.896;11.424;2022-08-03T01:08:05;4.27;;;3.87;;
12888;SDS011;56848;49.896;11.424;2022-08-03T01:15:43;6.17;;;4.30;;
12888;SDS011;56848;49.896;11.424;2022-08-03T01:18:24;8.67;;;4.20;;
12888;SDS011;56848;49.896;11.424;2022-08-03T01:21:11;11.67;;;5.10;;
12888;SDS011;56848;49.896;11.424;2022-08-03T01:26:52;5.20;;;4.40;;
12888;SDS011;56848;49.896;11.424;2022-08-03T01:35:05;5.00;;;4.50;;
12888;SDS011;56848;49.896;11.424;2022-08-03T01:37:51;5.10;;;4.60;;
12888;SDS011;56848;49.896;11.424;2022-08-03T01:40:22;7.40;;;4.33;;
12888;SDS011;56848;49.896;11.424;2022-08-03T01:42:51;5.83;;;4.43;;
12888;SDS011;56848;49.896;11.424;2022-08-03T01:45:19;8.00;;;4.57;;
12888;SDS011;56848;49.896;11.424;2022-08-03T01:47:46;7.83;;;4.67;;
12888;SDS011;56848;49.896;11.424;2022-08-03T01:50:13;5.00;;;4.60;;
12888;SDS011;56848;49.896;11.424;2022-08-03T01:52:43;8.33;;;4.40;;
12888;SDS011;56848;49.896;11.424;2022-08-03T01:55:10;5.20;;;4.70;;
12888;SDS011;56848;49.896;11.424;2022-08-03T01:57:38;4.80;;;4.10;;
12888;SDS011;56848;49.896;11.424;2022-08-03T02:00:07;5.70;;;4.00;;
12888;SDS011;56848;49.896;11.424;2022-08-03T02:02:35;4.27;;;3.93;;
12888;SDS011;56848;49.896;11.424;2022-08-03T02:05:03;4.00;;;3.70;;
12888;SDS011;56848;49.896;11.424;2022-08-03T02:07:32;5.30;;;3.90;;
12888;SDS011;56848;49.896;11.424;2022-08-03T02:09:59;8.67;;;4.20;;
12888;SDS011;56848;49.896;11.424;2022-08-03T02:12:26;5.33;;;4.30;;
12888;SDS011;56848;49.896;11.424;2022-08-03T02:14:53;5.63;;;4.27;;
12888;SDS011;56848;49.896;11.424;2022-08-03T02:17:20;5.70;;;4.17;;
12888;SDS011;56848;49.896;11.424;2022-08-03T02:19:47;5.00;;;4.27;;
12888;SDS011;56848;49.896;11.424;2022-08-03T02:22:13;5.60;;;4.50;;
12888;SDS011;56848;49.896;11.424;2022-08-03T02:24:39;4.20;;;3.90;;
12888;SDS011;56848;49.896;11.424;2022-08-03T02:27:08;6.10;;;4.33;;
12888;SDS011;56848;49.896;11.424;2022-08-03T02:29:35;4.50;;;4.10;;
12888;SDS011;56848;49.896;11.424;2022-08-03T02:32:01;5.20;;;4.30;;
12888;SDS011;56848;49.896;11.424;2022-08-03T02:34:28;4.60;;;4.20;;
12888;SDS011;56848;49.896;11.424;2022-08-03T02:36:56;4.90;;;4.40;;
12888;SDS011;56848;49.896;11.424;2022-08-03T02:39:24;7.33;;;4.50;;
12888;SDS011;56848;49.896;11.424;2022-08-03T02:41:53;5.17;;;4.67;;
12888;SDS011;56848;49.896;11.424;2022-08-03T02:44:26;5.50;;;4.93;;
12888;SDS011;56848;49.896;11.424;2022-08-03T02:46:57;5.00;;;4.60;;
12888;SDS011;56848;49.896;11.424;2022-08-03T02:49:26;5.33;;;4.33;;
12888;SDS011;56848;49.896;11.424;2022-08-03T02:51:53;5.73;;;4.70;;
12888;SDS011;56848;49.896;11.424;2022-08-03T02:54:21;4.30;;;3.73;;
12888;SDS011;56848;49.896;11.424;2022-08-03T02:56:47;5.20;;;4.70;;
12888;SDS011;56848;49.896;11.424;2022-08-03T02:59:14;5.60;;;4.03;;
12888;SDS011;56848;49.896;11.424;2022-08-03T03:01:43;5.00;;;4.50;;
12888;SDS011;56848;49.896;11.424;2022-08-03T03:04:10;5.70;;;4.43;;
12888;SDS011;56848;49.896;11.424;2022-08-03T03:06:37;7.33;;;4.80;;
12888;SDS011;56848;49.896;11.424;2022-08-03T03:09:03;5.90;;;4.93;;
12888;SDS011;56848;49.896;11.424;2022-08-03T03:11:29;5.43;;;4.47;;
12888;SDS011;56848;49.896;11.424;2022-08-03T03:13:56;11.97;;;5.10;;
12888;SDS011;56848;49.896;11.424;2022-08-03T03:16:22;5.43;;;4.97;;
12888;SDS011;56848;49.896;11.424;2022-08-03T03:18:49;4.67;;;4.27;;
12888;SDS011;56848;49.896;11.424;2022-08-03T03:21:15;5.20;;;4.80;;
12888;SDS011;56848;49.896;11.424;2022-08-03T03:23:43;6.10;;;5.43;;
12888;SDS011;56848;49.896;11.424;2022-08-03T03:26:10;5.73;;;5.07;;
12888;SDS011;56848;49.896;11.424;2022-08-03T03:28:38;7.10;;;4.53;;
12888;SDS011;56848;49.896;11.424;2022-08-03T03:31:05;7.40;;;4.33;;
12888;SDS011;56848;49.896;11.424;2022-08-03T03:33:34;5.57;;;5.00;;
12888;SDS011;56848;49.896;11.424;2022-08-03T03:36:00;7.57;;;5.00;;
12888;SDS011;56848;49.896;11.424;2022-08-03T03:38:27;6.00;;;4.80;;
12888;SDS011;56848;49.896;11.424;2022-08-03T03:40:53;9.27;;;5.57;;
12888;SDS011;56848;49.896;11.424;2022-08-03T03:43:19;9.77;;;5.10;;
12888;SDS011;56848;49.896;11.424;2022-08-03T03:45:47;7.43;;;5.17;;
12888;SDS011;56848;49.896;11.424;2022-08-03T03:48:14;7.13;;;5.50;;
12888;SDS011;56848;49.896;11.424;2022-08-03T03:50:40;5.43;;;4.93;;
12888;SDS011;56848;49.896;11.424;2022-08-03T03:53:09;7.43;;;5.80;;
12888;SDS011;56848;49.896;11.424;2022-08-03T03:55:36;6.97;;;5.13;;
12888;SDS011;56848;49.896;11.424;2022-08-03T03:58:02;6.00;;;5.40;;
12888;SDS011;56848;49.896;11.424;2022-08-03T04:00:28;7.50;;;5.10;;
12888;SDS011;56848;49.896;11.424;2022-08-03T04:02:54;7.53;;;5.67;;
12888;SDS011;56848;49.896;11.424;2022-08-03T04:05:20;9.57;;;5.30;;
12888;SDS011;56848;49.896;11.424;2022-08-03T04:08:06;9.27;;;5.43;;
12888;SDS011;56848;49.896;11.424;2022-08-03T04:11:04;5.43;;;4.93;;
12888;SDS011;56848;49.896;11.424;2022-08-03T04:14:07;9.90;;;6.23;;
12888;SDS011;56848;49.896;11.424;2022-08-03T04:16:25;8.47;;;6.80;;
12888;SDS011;56848;49.896;11.424;2022-08-03T04:18:56;9.80;;;6.00;;
12888;SDS011;56848;49.896;11.424;2022-08-03T04:21:23;8.73;;;6.23;;
12888;SDS011;56848;49.896;11.424;2022-08-03T04:23:50;5.70;;;5.23;;
12888;SDS011;56848;49.896;11.424;2022-08-03T04:26:19;9.40;;;5.50;;
12888;SDS011;56848;49.896;11.424;2022-08-03T04:28:45;7.47;;;5.20;;
12888;SDS011;56848;49.896;11.424;2022-08-03T04:31:13;5.27;;;4.77;;
12888;SDS011;56848;49.896;11.424;2022-08-03T04:33:40;6.80;;;6.10;;
12888;SDS011;56848;49.896;11.424;2022-08-03T04:36:08;5.47;;;4.97;;
12888;SDS011;56848;49.896;11.424;2022-08-03T04:38:36;6.00;;;5.40;;
12888;SDS011;56848;49.896;11.424;2022-08-03T04:41:03;10.57;;;5.40;;
12888;SDS011;56848;49.896;11.424;2022-08-03T04:43:30;5.77;;;4.93;;
12888;SDS011;56848;49.896;11.424;2022-08-03T04:45:57;11.47;;;6.03;;
12888;SDS011;56848;49.896;11.424;2022-08-03T04:48:24;7.43;;;5.10;;
12888;SDS011;56848;49.896;11.424;2022-08-03T04:50:50;10.50;;;4.90;;
12888;SDS011;56848;49.896;11.424;2022-08-03T04:53:16;5.63;;;5.10;;
12888;SDS011;56848;49.896;11.424;2022-08-03T04:55:42;13.87;;;4.70;;
12888;SDS011;56848;49.896;11.424;2022-08-03T04:58:08;7.23;;;5.07;;
12888;SDS011;56848;49.896;11.424;2022-08-03T05:00:35;5.90;;;5.30;;
12888;SDS011;56848;49.896;11.424;2022-08-03T05:03:00;5.97;;;5.37;;
12888;SDS011;56848;49.896;11.424;2022-08-03T05:05:26;5.63;;;5.13;;
12888;SDS011;56848;49.896;11.424;2022-08-03T05:07:52;5.40;;;5.00;;
12888;SDS011;56848;49.896;11.424;2022-08-03T05:10:20;5.80;;;5.40;;
12888;SDS011;56848;49.896;11.424;2022-08-03T05:12:46;5.63;;;4.70;;
12888;SDS011;56848;49.896;11.424;2022-08-03T05:15:13;5.00;;;4.50;;
12888;SDS011;56848;49.896;11.424;2022-08-03T05:17:39;5.60;;;5.07;;
12888;SDS011;56848;49.896;11.424;2022-08-03T05:20:06;6.37;;;4.57;;
12888;SDS011;56848;49.896;11.424;2022-08-03T05:22:32;7.43;;;5.40;;
12888;SDS011;56848;49.896;11.424;2022-08-03T05:24:59;6.27;;;5.70;;
12888;SDS011;56848;49.896;11.424;2022-08-03T05:27:25;6.27;;;4.97;;
12888;SDS011;56848;49.896;11.424;2022-08-03T05:29:51;6.00;;;4.93;;
12888;SDS011;56848;49.896;11.424;2022-08-03T05:32:17;6.47;;;5.50;;
12888;SDS011;56848;49.896;11.424;2022-08-03T05:34:43;5.80;;;5.20;;
12888;SDS011;56848;49.896;11.424;2022-08-03T05:37:10;6.23;;;4.77;;
12888;SDS011;56848;49.896;11.424;2022-08-03T05:39:36;5.63;;;5.13;;
12888;SDS011;56848;49.896;11.424;2022-08-03T05:42:02;10.50;;;5.97;;
12888;SDS011;56848;49.896;11.424;2022-08-03T05:44:28;5.30;;;4.80;;
12888;SDS011;56848;49.896;11.424;2022-08-03T05:46:55;15.10;;;5.00;;
12888;SDS011;56848;49.896;11.424;2022-08-03T05:49:21;10.40;;;5.53;;
12888;SDS011;56848;49.896;11.424;2022-08-03T05:51:47;6.00;;;5.33;;
12888;SDS011;56848;49.896;11.424;2022-08-03T05:54:13;5.50;;;5.00;;
12888;SDS011;56848;49.896;11.424;2022-08-03T05:56:39;8.43;;;5.67;;
12888;SDS011;56848;49.896;11.424;2022-08-03T05:59:05;5.87;;;5.27;;
12888;SDS011;56848;49.896;11.424;2022-08-03T06:01:31;6.60;;;5.77;;
12888;SDS011;56848;49.896;11.424;2022-08-03T06:03:58;4.70;;;4.30;;
12888;SDS011;56848;49.896;11.424;2022-08-03T06:06:24;6.30;;;5.70;;
12888;SDS011;56848;49.896;11.424;2022-08-03T06:08:50;7.80;;;5.13;;
12888;SDS011;56848;49.896;11.424;2022-08-03T06:11:16;6.50;;;5.23;;
12888;SDS011;56848;49.896;11.424;2022-08-03T06:13:42;9.30;;;5.47;;
12888;SDS011;56848;49.896;11.424;2022-08-03T06:16:09;6.70;;;5.73;;
12888;SDS011;56848;49.896;11.424;2022-08-03T06:18:35;10.00;;;4.87;;
12888;SDS011;56848;49.896;11.424;2022-08-03T06:21:01;15.87;;;5.93;;
12888;SDS011;56848;49.896;11.424;2022-08-03T06:23:27;11.70;;;5.30;;
12888;SDS011;56848;49.896;11.424;2022-08-03T06:25:53;6.07;;;4.90;;
12888;SDS011;56848;49.896;11.424;2022-08-03T06:28:19;5.80;;;5.20;;
12888;SDS011;56848;49.896;11.424;2022-08-03T06:30:45;6.33;;;5.73;;
12888;SDS011;56848;49.896;11.424;2022-08-03T06:33:11;6.13;;;4.60;;
12888;SDS011;56848;49.896;11.424;2022-08-03T06:35:37;5.63;;;4.40;;
12888;SDS011;56848;49.896;11.424;2022-08-03T06:38:03;7.10;;;4.30;;
12888;SDS011;56848;49.896;11.424;2022-08-03T06:40:29;4.40;;;3.60;;
12888;SDS011;56848;49.896;11.424;2022-08-03T06:42:57;8.30;;;4.40;;
12888;SDS011;56848;49.896;11.424;2022-08-03T06:45:23;6.40;;;4.40;;
12888;SDS011;56848;49.896;11.424;2022-08-03T06:50:31;4.00;;;3.53;;
12888;SDS011;56848;49.896;11.424;2022-08-03T06:52:58;4.43;;;4.00;;
12888;SDS011;56848;49.896;11.424;2022-08-03T06:55:24;4.80;;;3.73;;
12888;SDS011;56848;49.896;11.424;2022-08-03T06:57:50;5.50;;;3.40;;
12888;SDS011;56848;49.896;11.424;2022-08-03T07:00:16;4.30;;;3.33;;
12888;SDS011;56848;49.896;11.424;2022-08-03T07:02:43;4.17;;;3.20;;
12888;SDS011;56848;49.896;11.424;2022-08-03T07:05:09;6.40;;;3.23;;
12888;SDS011;56848;49.896;11.424;2022-08-03T07:07:35;4.70;;;3.40;;
12888;SDS011;56848;49.896;11.424;2022-08-03T07:10:02;3.83;;;3.20;;
12888;SDS011;56848;49.896;11.424;2022-08-03T07:12:28;3.00;;;2.80;;
12888;SDS011;56848;49.896;11.424;2022-08-03T07:14:55;4.37;;;3.00;;
12888;SDS011;56848;49.896;11.424;2022-08-03T07:17:21;8.77;;;3.30;;
12888;SDS011;56848;49.896;11.424;2022-08-03T07:19:47;5.00;;;2.50;;
12888;SDS011;56848;49.896;11.424;2022-08-03T07:22:13;4.33;;;2.53;;
12888;SDS011;56848;49.896;11.424;2022-08-03T07:24:39;3.60;;;2.50;;
12888;SDS011;56848;49.896;11.424;2022-08-03T07:27:08;12.17;;;3.30;;
12888;SDS011;56848;49.896;11.424;2022-08-03T07:29:35;2.97;;;2.60;;
12888;SDS011;56848;49.896;11.424;2022-08-03T07:32:01;2.90;;;2.70;;
12888;SDS011;56848;49.896;11.424;2022-08-03T07:34:27;6.10;;;2.80;;
12888;SDS011;56848;49.896;11.424;2022-08-03T07:36:53;7.60;;;2.83;;
12888;SDS011;56848;49.896;11.424;2022-08-03T07:39:19;2.90;;;2.17;;
12888;SDS011;56848;49.896;11.424;2022-08-03T07:41:46;4.17;;;2.90;;
12888;SDS011;56848;49.896;11.424;2022-08-03T07:44:14;2.80;;;2.60;;
12888;SDS011;56848;49.896;11.424;2022-08-03T07:46:40;3.73;;;2.70;;
12888;SDS011;56848;49.896;11.424;2022-08-03T07:49:06;2.30;;;2.20;;
12888;SDS011;56848;49.896;11.424;2022-08-03T07:51:32;4.30;;;2.50;;
12888;SDS011;56848;49.896;11.424;2022-08-03T07:53:58;5.20;;;2.60;;
12888;SDS011;56848;49.896;11.424;2022-08-03T07:56:25;2.67;;;2.47;;
12888;SDS011;56848;49.896;11.424;2022-08-03T07:58:51;10.70;;;2.50;;
12888;SDS011;56848;49.896;11.424;2022-08-03T08:01:17;2.50;;;2.30;;
12888;SDS011;56848;49.896;11.424;2022-08-03T08:03:47;5.00;;;2.23;;
12888;SDS011;56848;49.896;11.424;2022-08-03T08:06:13;2.73;;;2.17;;
12888;SDS011;56848;49.896;11.424;2022-08-03T08:08:40;3.27;;;2.77;;
12888;SDS011;56848;49.896;11.424;2022-08-03T08:11:06;3.77;;;2.30;;
12888;SDS011;56848;49.896;11.424;2022-08-03T08:13:32;3.00;;;2.03;;
12888;SDS011;56848;49.896;11.424;2022-08-03T08:15:58;2.40;;;2.20;;
12888;SDS011;56848;49.896;11.424;2022-08-03T08:18:25;2.23;;;2.13;;
12888;SDS011;56848;49.896;11.424;2022-08-03T08:20:53;2.37;;;2.17;;
12888;SDS011;56848;49.896;11.424;2022-08-03T08:23:20;4.20;;;2.03;;
12888;SDS011;56848;49.896;11.424;2022-08-03T08:25:50;2.70;;;2.20;;
12888;SDS011;56848;49.896;11.424;2022-08-03T08:28:16;3.13;;;2.23;;
12888;SDS011;56848;49.896;11.424;2022-08-03T08:30:42;2.57;;;2.37;;
12888;SDS011;56848;49.896;11.424;2022-08-03T08:33:09;4.40;;;2.80;;
12888;SDS011;56848;49.896;11.424;2022-08-03T08:35:34;5.87;;;2.50;;
12888;SDS011;56848;49.896;11.424;2022-08-03T08:38:01;3.93;;;2.67;;
12888;SDS011;56848;49.896;11.424;2022-08-03T08:40:27;3.10;;;2.10;;
12888;SDS011;56848;49.896;11.424;2022-08-03T08:42:53;3.03;;;2.37;;
12888;SDS011;56848;49.896;11.424;2022-08-03T08:45:19;3.90;;;2.60;;
12888;SDS011;56848;49.896;11.424;2022-08-03T08:47:46;2.50;;;2.17;;
12888;SDS011;56848;49.896;11.424;2022-08-03T08:50:13;20.13;;;7.00;;
12888;SDS011;56848;49.896;11.424;2022-08-03T08:52:39;2.97;;;2.20;;
12888;SDS011;56848;49.896;11.424;2022-08-03T08:55:07;6.33;;;2.20;;
12888;SDS011;56848;49.896;11.424;2022-08-03T08:57:37;2.23;;;2.03;;
12888;SDS011;56848;49.896;11.424;2022-08-03T09:00:07;5.80;;;2.10;;
12888;SDS011;56848;49.896;11.424;2022-08-03T09:02:34;2.30;;;2.20;;
12888;SDS011;56848;49.896;11.424;2022-08-03T09:05:01;2.17;;;2.07;;
12888;SDS011;56848;49.896;11.424;2022-08-03T09:07:27;2.10;;;2.00;;
12888;SDS011;56848;49.896;11.424;2022-08-03T09:09:53;2.50;;;1.83;;
12888;SDS011;56848;49.896;11.424;2022-08-03T09:12:19;4.27;;;2.70;;
12888;SDS011;56848;49.896;11.424;2022-08-03T09:14:45;3.73;;;1.90;;
12888;SDS011;56848;49.896;11.424;2022-08-03T09:17:11;4.30;;;2.20;;
12888;SDS011;56848;49.896;11.424;2022-08-03T09:19:37;6.33;;;2.13;;
12888;SDS011;56848;49.896;11.424;2022-08-03T09:22:11;1.97;;;1.87;;
12888;SDS011;56848;49.896;11.424;2022-08-03T09:24:38;2.83;;;2.33;;
12888;SDS011;56848;49.896;11.424;2022-08-03T09:27:10;2.83;;;2.50;;
12888;SDS011;56848;49.896;11.424;2022-08-03T09:29:37;2.40;;;2.20;;
12888;SDS011;56848;49.896;11.424;2022-08-03T09:32:03;2.07;;;1.97;;
12888;SDS011;56848;49.896;11.424;2022-08-03T09:34:29;5.00;;;2.90;;
12888;SDS011;56848;49.896;11.424;2022-08-03T09:36:56;2.90;;;2.27;;
12888;SDS011;56848;49.896;11.424;2022-08-03T09:39:23;2.33;;;2.13;;
12888;SDS011;56848;49.896;11.424;2022-08-03T09:42:10;3.70;;;2.30;;
12888;SDS011;56848;49.896;11.424;2022-08-03T09:44:38;2.70;;;2.20;;
12888;SDS011;56848;49.896;11.424;2022-08-03T09:47:06;4.20;;;2.13;;
12888;SDS011;56848;49.896;11.424;2022-08-03T09:49:33;2.70;;;2.50;;
12888;SDS011;56848;49.896;11.424;2022-08-03T09:52:00;3.07;;;2.07;;
12888;SDS011;56848;49.896;11.424;2022-08-03T09:54:27;3.27;;;2.40;;
12888;SDS011;56848;49.896;11.424;2022-08-03T09:56:54;3.43;;;2.10;;
12888;SDS011;56848;49.896;11.424;2022-08-03T09:59:25;2.10;;;2.00;;
12888;SDS011;56848;49.896;11.424;2022-08-03T10:01:51;2.73;;;2.57;;
12888;SDS011;56848;49.896;11.424;2022-08-03T10:04:17;2.40;;;2.20;;
12888;SDS011;56848;49.896;11.424;2022-08-03T10:06:44;4.03;;;2.60;;
12888;SDS011;56848;49.896;11.424;2022-08-03T10:09:12;5.43;;;2.37;;
12888;SDS011;56848;49.896;11.424;2022-08-03T10:11:38;2.53;;;2.27;;
12888;SDS011;56848;49.896;11.424;2022-08-03T10:14:05;4.50;;;2.10;;
12888;SDS011;56848;49.896;11.424;2022-08-03T10:16:33;2.00;;;1.90;;
12888;SDS011;56848;49.896;11.424;2022-08-03T10:18:59;3.30;;;2.40;;
12888;SDS011;56848;49.896;11.424;2022-08-03T10:21:25;2.17;;;2.07;;
12888;SDS011;56848;49.896;11.424;2022-08-03T10:23:55;2.50;;;2.30;;
12888;SDS011;56848;49.896;11.424;2022-08-03T10:26:21;7.20;;;2.03;;
12888;SDS011;56848;49.896;11.424;2022-08-03T10:28:49;2.60;;;2.00;;
12888;SDS011;56848;49.896;11.424;2022-08-03T10:31:17;2.90;;;2.10;;
12888;SDS011;56848;49.896;11.424;2022-08-03T10:33:48;2.80;;;2.07;;
12888;SDS011;56848;49.896;11.424;2022-08-03T10:36:15;2.03;;;1.93;;
12888;SDS011;56848;49.896;11.424;2022-08-03T10:38:48;2.23;;;2.03;;
12888;SDS011;56848;49.896;11.424;2022-08-03T10:41:17;2.30;;;2.20;;
12888;SDS011;56848;49.896;11.424;2022-08-03T10:43:46;2.17;;;2.07;;
12888;SDS011;56848;49.896;11.424;2022-08-03T10:46:16;2.33;;;2.20;;
12888;SDS011;56848;49.896;11.424;2022-08-03T10:48:44;2.30;;;2.10;;
12888;SDS011;56848;49.896;11.424;2022-08-03T10:51:11;10.90;;;2.47;;
12888;SDS011;56848;49.896;11.424;2022-08-03T10:53:38;2.80;;;2.50;;
12888;SDS011;56848;49.896;11.424;2022-08-03T10:56:04;1.83;;;1.73;;
12888;SDS011;56848;49.896;11.424;2022-08-03T10:58:50;9.13;;;2.40;;
12888;SDS011;56848;49.896;11.424;2022-08-03T11:01:17;2.83;;;2.00;;
12888;SDS011;56848;49.896;11.424;2022-08-03T11:08:45;3.10;;;2.47;;
12888;SDS011;56848;49.896;11.424;2022-08-03T11:13:57;2.60;;;2.40;;
12888;SDS011;56848;49.896;11.424;2022-08-03T11:16:24;2.53;;;2.20;;
12888;SDS011;56848;49.896;11.424;2022-08-03T11:18:58;7.20;;;2.20;;
12888;SDS011;56848;49.896;11.424;2022-08-03T11:24:09;2.27;;;2.17;;
12888;SDS011;56848;49.896;11.424;2022-08-03T11:26:35;2.80;;;2.10;;
12888;SDS011;56848;49.896;11.424;2022-08-03T11:29:25;2.30;;;2.20;;
12888;SDS011;56848;49.896;11.424;2022-08-03T11:31:51;14.77;;;2.50;;
12888;SDS011;56848;49.896;11.424;2022-08-03T11:34:17;2.47;;;2.37;;
12888;SDS011;56848;49.896;11.424;2022-08-03T11:39:41;4.50;;;2.40;;
12888;SDS011;56848;49.896;11.424;2022-08-03T11:42:37;2.43;;;2.17;;
12888;SDS011;56848;49.896;11.424;2022-08-03T11:44:55;2.50;;;2.30;;
12888;SDS011;56848;49.896;11.424;2022-08-03T11:47:23;2.67;;;2.47;;
12888;SDS011;56848;49.896;11.424;2022-08-03T11:49:52;2.43;;;2.23;;
12888;SDS011;56848;49.896;11.424;2022-08-03T11:52:18;6.00;;;2.30;;
12888;SDS011;56848;49.896;11.424;2022-08-03T11:54:44;6.60;;;2.33;;
12888;SDS011;56848;49.896;11.424;2022-08-03T11:57:10;3.40;;;2.37;;
12888;SDS011;56848;49.896;11.424;2022-08-03T11:59:37;25.70;;;3.07;;
12888;SDS011;56848;49.896;11.424;2022-08-03T12:02:07;10.30;;;2.80;;
12888;SDS011;56848;49.896;11.424;2022-08-03T12:04:55;2.60;;;2.40;;
12888;SDS011;56848;49.896;11.424;2022-08-03T12:07:22;4.23;;;2.50;;
12888;SDS011;56848;49.896;11.424;2022-08-03T12:10:10;3.40;;;2.20;;
12888;SDS011;56848;49.896;11.424;2022-08-03T12:12:37;5.60;;;2.17;;
12888;SDS011;56848;49.896;11.424;2022-08-03T12:15:04;2.33;;;2.00;;
12888;SDS011;56848;49.896;11.424;2022-08-03T12:17:34;2.93;;;2.03;;
12888;SDS011;56848;49.896;11.424;2022-08-03T12:20:00;3.63;;;2.70;;
12888;SDS011;56848;49.896;11.424;2022-08-03T12:22:33;3.77;;;2.50;;
12888;SDS011;56848;49.896;11.424;2022-08-03T12:24:59;2.60;;;2.13;;
12888;SDS011;56848;49.896;11.424;2022-08-03T12:27:25;2.47;;;2.27;;
12888;SDS011;56848;49.896;11.424;2022-08-03T12:29:55;9.33;;;2.30;;
12888;SDS011;56848;49.896;11.424;2022-08-03T12:32:21;2.53;;;1.97;;
12888;SDS011;56848;49.896;11.424;2022-08-03T12:34:48;2.50;;;2.00;;
12888;SDS011;56848;49.896;11.424;2022-08-03T12:37:21;12.77;;;2.40;;
12888;SDS011;56848;49.896;11.424;2022-08-03T12:39:51;10.13;;;2.50;;
12888;SDS011;56848;49.896;11.424;2022-08-03T12:42:17;2.30;;;2.20;;
12888;SDS011;56848;49.896;11.424;2022-08-03T12:44:43;6.03;;;2.23;;
12888;SDS011;56848;49.896;11.424;2022-08-03T12:47:14;5.93;;;2.03;;
12888;SDS011;56848;49.896;11.424;2022-08-03T12:49:44;3.27;;;2.30;;
12888;SDS011;56848;49.896;11.424;2022-08-03T12:52:10;2.70;;;2.50;;
12888;SDS011;56848;49.896;11.424;2022-08-03T12:54:36;2.50;;;1.70;;
12888;SDS011;56848;49.896;11.424;2022-08-03T12:59:36;2.70;;;2.50;;
12888;SDS011;56848;49.896;11.424;2022-08-03T13:02:18;6.30;;;2.40;;
12888;SDS011;56848;49.896;11.424;2022-08-03T13:04:45;2.40;;;2.30;;
12888;SDS011;56848;49.896;11.424;2022-08-03T13:07:12;4.93;;;2.43;;
12888;SDS011;56848;49.896;11.424;2022-08-03T13:12:08;7.63;;;2.50;;
12888;SDS011;56848;49.896;11.424;2022-08-03T13:14:34;6.40;;;2.43;;
12888;SDS011;56848;49.896;11.424;2022-08-03T13:17:00;2.43;;;2.33;;
12888;SDS011;56848;49.896;11.424;2022-08-03T13:19:26;2.60;;;2.40;;
12888;SDS011;56848;49.896;11.424;2022-08-03T13:21:52;2.63;;;2.30;;
12888;SDS011;56848;49.896;11.424;2022-08-03T13:24:18;4.00;;;2.40;;
12888;SDS011;56848;49.896;11.424;2022-08-03T13:26:45;2.13;;;2.03;;
12888;SDS011;56848;49.896;11.424;2022-08-03T13:29:10;4.03;;;2.13;;
12888;SDS011;56848;49.896;11.424;2022-08-03T13:31:36;2.20;;;2.10;;
12888;SDS011;56848;49.896;11.424;2022-08-03T13:34:02;5.30;;;2.17;;
12888;SDS011;56848;49.896;11.424;2022-08-03T13:36:28;2.20;;;2.10;;
12888;SDS011;56848;49.896;11.424;2022-08-03T13:38:54;2.63;;;2.40;;
12888;SDS011;56848;49.896;11.424;2022-08-03T13:41:20;6.50;;;2.17;;
12888;SDS011;56848;49.896;11.424;2022-08-03T13:43:46;2.13;;;2.03;;
12888;SDS011;56848;49.896;11.424;2022-08-03T13:46:12;2.17;;;2.00;;
12888;SDS011;56848;49.896;11.424;2022-08-03T13:48:38;4.60;;;2.57;;
12888;SDS011;56848;49.896;11.424;2022-08-03T13:51:04;3.23;;;2.20;;
12888;SDS011;56848;49.896;11.424;2022-08-03T13:53:30;2.37;;;2.27;;
12888;SDS011;56848;49.896;11.424;2022-08-03T13:55:56;2.60;;;2.40;;
12888;SDS011;56848;49.896;11.424;2022-08-03T13:58:22;3.20;;;2.50;;
12888;SDS011;56848;49.896;11.424;2022-08-03T14:00:48;3.13;;;2.30;;
12888;SDS011;56848;49.896;11.424;2022-08-03T14:03:14;2.50;;;2.30;;
12888;SDS011;56848;49.896;11.424;2022-08-03T14:05:43;4.57;;;2.60;;
12888;SDS011;56848;49.896;11.424;2022-08-03T14:08:10;4.23;;;2.20;;
12888;SDS011;56848;49.896;11.424;2022-08-03T14:10:38;6.20;;;2.57;;
12888;SDS011;56848;49.896;11.424;2022-08-03T14:13:04;5.67;;;2.50;;
12888;SDS011;56848;49.896;11.424;2022-08-03T14:15:30;3.80;;;2.37;;
12888;SDS011;56848;49.896;11.424;2022-08-03T14:17:57;4.60;;;2.20;;
12888;SDS011;56848;49.896;11.424;2022-08-03T14:20:23;3.23;;;2.10;;
12888;SDS011;56848;49.896;11.424;2022-08-03T14:22:49;2.10;;;2.00;;
12888;SDS011;56848;49.896;11.424;2022-08-03T14:25:15;4.97;;;2.60;;
12888;SDS011;56848;49.896;11.424;2022-08-03T14:27:41;3.47;;;2.80;;
12888;SDS011;56848;49.896;11.424;2022-08-03T14:30:07;3.63;;;2.07;;
12888;SDS011;56848;49.896;11.424;2022-08-03T14:32:33;4.10;;;2.40;;
12888;SDS011;56848;49.896;11.424;2022-08-03T14:34:59;2.20;;;2.10;;
12888;SDS011;56848;49.896;11.424;2022-08-03T14:37:25;4.33;;;2.30;;
12888;SDS011;56848;49.896;11.424;2022-08-03T14:39:51;5.37;;;2.67;;
12888;SDS011;56848;49.896;11.424;2022-08-03T14:42:17;2.40;;;2.03;;
12888;SDS011;56848;49.896;11.424;2022-08-03T14:44:44;2.57;;;2.37;;
12888;SDS011;56848;49.896;11.424;2022-08-03T14:47:10;6.37;;;2.20;;
12888;SDS011;56848;49.896;11.424;2022-08-03T14:49:36;2.07;;;1.87;;
12888;SDS011;56848;49.896;11.424;2022-08-03T14:52:02;2.30;;;2.20;;
12888;SDS011;56848;49.896;11.424;2022-08-03T14:54:28;4.90;;;2.27;;
12888;SDS011;56848;49.896;11.424;2022-08-03T14:56:55;2.23;;;2.10;;
12888;SDS011;56848;49.896;11.424;2022-08-03T14:59:21;2.80;;;2.30;;
12888;SDS011;56848;49.896;11.424;2022-08-03T15:01:47;5.77;;;2.63;;
12888;SDS011;56848;49.896;11.424;2022-08-03T15:04:13;2.77;;;2.60;;
12888;SDS011;56848;49.896;11.424;2022-08-03T15:06:39;3.80;;;2.30;;
12888;SDS011;56848;49.896;11.424;2022-08-03T15:09:05;2.17;;;2.07;;
12888;SDS011;56848;49.896;11.424;2022-08-03T15:11:31;2.50;;;2.30;;